Time;durP1;ratioP1;P1;durP2;ratioP2;P2;SDS_P1;SDS_P2;PMS_P1;PMS_P2;Temp;Humidity;BMP_temperature;BMP_pressure;BME280_temperature;BME280_humidity;BME280_pressure;Samples;Min_cycle;Max_cycle;Signal;HPM_P1;HPM_P2
2021/03/07 00:01:16;;;;;;;27.40;14.93;;;;;;;-0.92;76.96;101466.59;5078874;28;20047;-77
2021/03/07 00:03:43;;;;;;;31.25;15.10;;;;;;;-0.91;76.50;101466.59;5096961;28;20048;-75
2021/03/07 00:06:10;;;;;;;30.33;14.48;;;;;;;-0.85;76.60;101477.16;5096946;28;20048;-75
2021/03/07 00:08:37;;;;;;;25.52;15.30;;;;;;;-0.93;77.35;101463.06;5096574;28;20066;-77
2021/03/07 00:11:18;;;;;;;24.17;15.13;;;;;;;-0.92;76.54;101475.34;5063794;28;20054;-76
2021/03/07 00:13:44;;;;;;;28.70;17.65;;;;;;;-0.99;77.66;101479.63;5096751;28;20048;-76
2021/03/07 00:16:10;;;;;;;28.73;16.55;;;;;;;-1.05;77.63;101466.47;5096455;28;20055;-79
2021/03/07 00:18:36;;;;;;;28.60;16.55;;;;;;;-1.03;77.64;101469.97;5096818;28;20048;-74
2021/03/07 00:21:03;;;;;;;23.02;16.52;;;;;;;-1.09;77.40;101467.34;5096393;28;20087;-77
2021/03/07 00:23:29;;;;;;;32.58;18.45;;;;;;;-1.16;78.22;101452.41;5078582;28;20055;-76
2021/03/07 00:25:55;;;;;;;27.73;17.35;;;;;;;-1.06;78.19;101475.22;5062126;28;20053;-76
2021/03/07 00:28:21;;;;;;;26.38;16.35;;;;;;;-1.13;78.28;101476.03;5096462;28;20349;-75
2021/03/07 00:30:47;;;;;;;26.27;16.90;;;;;;;-1.16;78.24;101470.75;5096301;28;20425;-77
2021/03/07 00:33:13;;;;;;;28.83;16.48;;;;;;;-1.16;78.36;101465.50;5096326;28;20052;-74
2021/03/07 00:35:40;;;;;;;30.33;17.38;;;;;;;-1.21;78.87;101467.22;5096021;28;20044;-79
2021/03/07 00:38:06;;;;;;;28.15;16.30;;;;;;;-1.15;78.75;101467.28;5095696;28;20048;-72
2021/03/07 00:40:32;;;;;;;29.17;17.05;;;;;;;-1.19;78.88;101475.97;5095757;28;20048;-80
2021/03/07 00:42:59;;;;;;;38.28;17.35;;;;;;;-1.17;78.69;101469.88;5096361;28;20421;-74
2021/03/07 00:45:25;;;;;;;29.63;17.95;;;;;;;-1.26;79.48;101475.91;5095857;28;20131;-73
2021/03/07 00:47:51;;;;;;;34.97;18.92;;;;;;;-1.30;79.71;101463.63;5096329;28;20051;-74
2021/03/07 00:50:21;;;;;;;29.23;18.48;;;;;;;-1.27;78.96;101458.44;5096413;28;20054;-75
2021/03/07 00:52:47;;;;;;;30.65;17.20;;;;;;;-1.27;79.47;101463.69;5096267;28;20048;-73
2021/03/07 00:55:13;;;;;;;28.17;17.50;;;;;;;-1.34;79.75;101460.97;5078384;28;20060;-74
2021/03/07 00:57:39;;;;;;;28.95;17.67;;;;;;;-1.40;79.49;101460.09;5094839;28;20064;-76
2021/03/07 01:00:10;;;;;;;31.73;18.77;;;;;;;-1.44;79.69;101454.78;5096147;28;20047;-76
2021/03/07 01:02:36;;;;;;;31.67;17.58;;;;;;;-1.40;79.76;101456.56;5095864;28;20351;-75
2021/03/07 01:05:04;;;;;;;38.42;19.75;;;;;;;-1.47;79.45;101458.25;5094859;28;20086;-76
2021/03/07 01:07:30;;;;;;;35.03;19.40;;;;;;;-1.42;80.08;101460.94;5095323;28;20315;-78
2021/03/07 01:09:56;;;;;;;34.03;20.60;;;;;;;-1.44;79.64;101454.78;5095746;28;20052;-76
2021/03/07 01:12:23;;;;;;;32.58;19.00;;;;;;;-1.48;79.60;101448.63;5095554;28;20434;-76
2021/03/07 01:14:49;;;;;;;34.10;18.95;;;;;;;-1.46;79.49;101452.16;5077963;28;20048;-73
2021/03/07 01:17:15;;;;;;;34.60;18.73;;;;;;;-1.47;79.99;101452.16;5077658;28;20402;-76
2021/03/07 01:19:41;;;;;;;30.38;19.33;;;;;;;-1.40;80.15;101459.19;5078058;28;20322;-77
2021/03/07 01:22:08;;;;;;;30.40;19.33;;;;;;;-1.42;79.01;101455.69;5095632;28;20044;-75
2021/03/07 01:24:35;;;;;;;30.33;17.98;;;;;;;-1.48;78.99;101451.25;5095969;28;20056;-78
2021/03/07 01:27:01;;;;;;;35.05;17.65;;;;;;;-1.46;79.30;101454.78;5095626;28;20048;-76
2021/03/07 01:29:27;;;;;;;29.02;17.98;;;;;;;-1.48;79.74;101453.00;5099698;28;20064;-72
2021/03/07 01:31:53;;;;;;;32.80;19.20;;;;;;;-1.44;79.74;101454.78;5087237;28;20063;-73
2021/03/07 01:34:19;;;;;;;38.30;18.13;;;;;;;-1.48;80.02;101447.78;5088696;28;20111;-72
2021/03/07 01:36:46;;;;;;;28.52;16.77;;;;;;;-1.49;79.43;101443.41;5088358;28;20390;-73
2021/03/07 01:39:12;;;;;;;25.38;16.05;;;;;;;-1.63;79.98;101420.59;5098562;28;20059;-75
2021/03/07 01:41:38;;;;;;;26.05;16.67;;;;;;;-1.52;79.88;101432.00;5096876;28;20074;-75
2021/03/07 01:44:05;;;;;;;23.25;15.27;;;;;;;-1.57;80.10;101423.22;5079521;28;20421;-74
2021/03/07 01:46:31;;;;;;;27.52;16.67;;;;;;;-1.54;80.15;101418.03;5085946;28;20133;-73
2021/03/07 01:48:57;;;;;;;29.33;15.20;;;;;;;-1.60;80.37;101417.09;5104847;28;20067;-73
2021/03/07 01:51:24;;;;;;;26.27;15.02;;;;;;;-1.66;80.44;101412.69;5090595;28;20101;-77
2021/03/07 01:53:50;;;;;;;25.40;14.40;;;;;;;-1.72;81.23;101405.66;5106718;28;20056;-74
2021/03/07 01:56:17;;;;;;;26.70;14.63;;;;;;;-1.81;80.79;101395.06;5105006;28;20078;-74
2021/03/07 01:58:46;;;;;;;27.60;13.85;;;;;;;-1.76;81.04;101395.16;5105174;28;20052;-74
2021/03/07 02:01:12;;;;;;;22.80;13.55;;;;;;;-1.66;80.51;101397.88;5068111;28;20051;-75
2021/03/07 02:03:52;;;;;;;21.60;13.75;;;;;;;-1.70;80.00;101401.31;5102370;28;20052;-72
2021/03/07 02:06:20;;;;;;;20.83;13.65;;;;;;;-1.74;80.58;101396.88;5102490;28;20051;-73
2021/03/07 02:08:48;;;;;;;26.77;13.90;;;;;;;-1.76;80.60;101397.75;5085392;28;20043;-75
2021/03/07 02:11:16;;;;;;;26.95;13.85;;;;;;;-1.81;80.46;101388.13;5085081;28;20048;-77
2021/03/07 02:13:43;;;;;;;24.83;13.90;;;;;;;-1.85;80.92;101381.06;5102268;28;20394;-77
2021/03/07 02:16:16;;;;;;;27.00;14.27;;;;;;;-1.86;81.39;101381.94;5101448;28;20056;-73
2021/03/07 02:18:44;;;;;;;23.38;13.77;;;;;;;-1.93;81.00;101388.88;5106880;28;20086;-73
2021/03/07 02:21:36;;;;;;;24.15;13.32;;;;;;;-1.83;80.05;101384.59;5092743;28;20052;-73
2021/03/07 02:24:06;;;;;;;24.83;13.45;;;;;;;-1.91;80.81;101375.78;5094691;28;20075;-77
2021/03/07 02:26:34;;;;;;;26.77;13.77;;;;;;;-1.91;80.51;101381.00;5099056;28;20346;-76
2021/03/07 02:29:03;;;;;;;22.05;13.10;;;;;;;-2.02;80.76;101364.34;5099235;28;20040;-78
2021/03/07 02:31:29;;;;;;;21.23;11.95;;;;;;;-2.00;81.17;101367.84;5099098;28;20052;-75
2021/03/07 02:33:58;;;;;;;17.77;12.73;;;;;;;-1.97;81.24;101370.50;5098443;28;20087;-77
2021/03/07 02:36:33;;;;;;;21.00;12.63;;;;;;;-1.94;80.51;101370.53;5081340;28;20052;-77
2021/03/07 02:39:02;;;;;;;18.48;12.68;;;;;;;-1.96;80.53;101367.88;5098847;28;20044;-73
2021/03/07 02:41:30;;;;;;;17.15;11.57;;;;;;;-2.02;80.79;101366.97;5098919;28;20047;-76
2021/03/07 02:43:59;;;;;;;19.15;12.05;;;;;;;-2.02;80.29;101357.34;5098439;28;20097;-73
2021/03/07 02:46:26;;;;;;;18.77;11.82;;;;;;;-2.12;80.38;101345.91;5098361;28;20356;-74
2021/03/07 02:48:58;;;;;;;18.42;11.73;;;;;;;-2.09;80.41;101355.53;5098207;28;20084;-76
2021/03/07 02:51:27;;;;;;;20.05;10.88;;;;;;;-2.13;80.83;101359.84;5098696;28;20052;-72
2021/03/07 02:53:57;;;;;;;19.52;11.10;;;;;;;-2.14;81.58;101347.66;5098847;28;20044;-75
2021/03/07 02:56:28;;;;;;;19.45;12.18;;;;;;;-2.20;80.66;101345.84;5098342;28;20059;-77
2021/03/07 02:58:59;;;;;;;;;;;;;;;-2.17;81.25;101354.59;5080998;28;20091;-76
2021/03/07 03:01:28;;;;;;;21.42;11.15;;;;;;;-2.16;81.05;101343.25;5097079;28;20302;-77
2021/03/07 03:03:55;;;;;;;20.58;11.30;;;;;;;-2.07;80.61;101346.00;5098345;28;20044;-77
2021/03/07 03:06:21;;;;;;;19.17;11.25;;;;;;;-2.15;81.02;101345.91;5097997;28;20055;-73
2021/03/07 03:08:56;;;;;;;22.13;11.68;;;;;;;-2.23;81.54;101329.25;5097857;28;20048;-79
2021/03/07 03:11:31;;;;;;;16.58;11.73;;;;;;;-2.20;81.39;101331.88;5098132;28;20058;-74
2021/03/07 03:13:59;;;;;;;21.05;10.88;;;;;;;-2.21;81.86;101330.13;5097849;28;20129;-74
2021/03/07 03:16:29;;;;;;;18.90;11.20;;;;;;;-2.25;81.39;101316.16;5098176;28;20066;-75
2021/03/07 03:18:57;;;;;;;15.85;10.82;;;;;;;-2.23;81.68;101326.63;5098098;28;20040;-74
2021/03/07 03:21:24;;;;;;;14.60;11.15;;;;;;;-2.20;81.82;101321.41;5079972;28;20052;-74
2021/03/07 03:23:50;;;;;;;19.10;11.48;;;;;;;-2.27;81.63;101324.84;5097787;28;20433;-74
2021/03/07 03:26:20;;;;;;;26.23;12.38;;;;;;;-2.34;81.33;101302.97;5097715;28;20044;-77
2021/03/07 03:28:49;;;;;;;24.67;14.80;;;;;;;-2.30;81.68;101324.81;5097719;28;20048;-75
2021/03/07 03:31:15;;;;;;;24.50;15.40;;;;;;;-2.34;81.64;101305.59;5080014;28;20056;-79
2021/03/07 03:33:41;;;;;;;27.95;16.23;;;;;;;-2.36;82.24;101318.66;5079501;28;20052;-76
2021/03/07 03:36:08;;;;;;;21.20;15.32;;;;;;;-2.39;81.74;101321.22;5097754;28;20059;-75
2021/03/07 03:38:49;;;;;;;27.55;15.40;;;;;;;-2.51;81.36;101290.59;5097702;28;20055;-76
2021/03/07 03:41:16;;;;;;;23.30;15.43;;;;;;;-2.43;81.97;101308.09;5079325;28;20048;-73
2021/03/07 03:43:56;;;;;;;23.65;16.00;;;;;;;-2.52;81.56;101287.94;5097069;28;20048;-75
2021/03/07 03:46:24;;;;;;;26.80;17.38;;;;;;;-2.37;81.95;101318.63;5097295;28;20094;-77
2021/03/07 03:48:58;;;;;;;30.10;18.10;;;;;;;-2.43;82.21;101319.44;5097421;28;20400;-76
2021/03/07 03:51:25;;;;;;;24.90;16.70;;;;;;;-2.46;81.91;101322.91;5079809;28;20059;-76
2021/03/07 03:53:53;;;;;;;23.52;16.48;;;;;;;-2.49;82.44;101319.38;5097288;28;20059;-75
2021/03/07 03:56:23;;;;;;;30.70;18.48;;;;;;;-2.49;82.24;101314.13;5079409;28;20425;-75
2021/03/07 03:58:50;;;;;;;32.22;17.25;;;;;;;-2.51;82.32;101315.88;5096753;28;20432;-72
2021/03/07 04:01:18;;;;;;;35.03;18.13;;;;;;;-2.52;82.20;101320.19;5097284;28;20055;-74
2021/03/07 04:03:49;;;;;;;29.23;17.98;;;;;;;-2.54;82.72;101315.81;5062314;28;20135;-75
2021/03/07 04:06:23;;;;;;;25.85;17.13;;;;;;;-2.60;82.56;101301.81;5096863;28;20044;-73
2021/03/07 04:08:52;;;;;;;29.85;16.63;;;;;;;-2.60;82.60;101311.41;5096723;28;20052;-72
2021/03/07 04:11:20;;;;;;;28.02;17.27;;;;;;;-2.75;82.08;101292.06;5096844;28;20396;-74
2021/03/07 04:13:46;;;;;;;33.30;16.65;;;;;;;-2.69;82.04;101293.88;5096462;28;20060;-76
2021/03/07 04:16:14;;;;;;;25.42;16.90;;;;;;;-2.67;82.11;101299.97;5096769;28;20056;-77
2021/03/07 04:18:41;;;;;;;27.58;17.35;;;;;;;-2.65;82.83;101307.84;5096465;28;20055;-74
2021/03/07 04:21:08;;;;;;;28.00;16.60;;;;;;;-2.66;82.55;101295.63;5096576;28;20055;-74
2021/03/07 04:23:34;;;;;;;32.35;17.65;;;;;;;-2.69;82.76;101293.88;5096596;28;20323;-75
2021/03/07 04:26:01;;;;;;;25.90;17.20;;;;;;;-2.65;82.24;101298.28;5078463;28;20048;-75
2021/03/07 04:28:28;;;;;;;27.95;17.25;;;;;;;-2.66;82.69;101291.31;5096974;28;20097;-75
2021/03/07 04:30:55;;;;;;;23.67;17.40;;;;;;;-2.67;82.54;101299.97;5096615;28;20467;-78
2021/03/07 04:33:21;;;;;;;36.28;18.58;;;;;;;-2.78;83.02;101280.69;5096160;28;20087;-74
2021/03/07 04:35:48;;;;;;;31.00;19.10;;;;;;;-2.76;83.18;101295.53;5078633;28;20056;-77
2021/03/07 04:38:16;;;;;;;30.50;19.42;;;;;;;-2.72;83.03;101293.84;5096906;28;20105;-75
2021/03/07 04:40:42;;;;;;;29.80;18.55;;;;;;;-2.73;83.15;101292.94;5096502;28;20052;-74
2021/03/07 04:43:08;;;;;;;27.73;17.65;;;;;;;-2.70;83.04;101291.22;5078792;28;20060;-75
2021/03/07 04:45:35;;;;;;;27.17;17.83;;;;;;;-2.70;83.68;101289.50;5078595;28;20044;-75
2021/03/07 04:48:03;;;;;;;26.88;17.80;;;;;;;-2.71;83.65;101285.13;5067698;28;20368;-74
2021/03/07 04:50:29;;;;;;;29.10;18.05;;;;;;;-2.82;84.05;101290.22;5104590;28;20076;-72
2021/03/07 04:52:55;;;;;;;29.30;17.42;;;;;;;-2.82;83.95;101284.13;5092252;28;20051;-72
2021/03/07 04:55:21;;;;;;;28.42;17.10;;;;;;;-2.84;83.91;101291.06;5103732;28;20044;-75
2021/03/07 04:57:47;;;;;;;32.88;18.67;;;;;;;-2.89;84.17;101284.03;5096561;28;20067;-75
2021/03/07 05:00:17;;;;;;;37.17;18.30;;;;;;;-2.93;83.81;101282.25;5061681;28;20058;-78
2021/03/07 05:02:44;;;;;;;27.88;17.52;;;;;;;-2.96;83.41;101276.13;5095898;28;20058;-76
2021/03/07 05:05:11;;;;;;;36.17;18.83;;;;;;;-2.97;83.72;101272.63;5096283;28;20048;-76
2021/03/07 05:07:37;;;;;;;33.47;18.65;;;;;;;-3.04;83.95;101262.94;5096220;28;20052;-76
2021/03/07 05:10:06;;;;;;;25.60;17.35;;;;;;;-3.05;83.51;101277.72;5095718;28;20055;-75
2021/03/07 05:12:32;;;;;;;27.33;18.10;;;;;;;-3.05;84.41;101274.25;5077933;28;20043;-75
2021/03/07 05:15:07;;;;;;;24.90;17.13;;;;;;;-3.01;83.53;101276.03;5095651;28;20087;-75
2021/03/07 05:17:34;;;;;;;28.23;17.83;;;;;;;-3.07;83.91;101268.13;5077839;28;20067;-74
2021/03/07 05:20:03;;;;;;;26.20;17.23;;;;;;;-3.07;83.49;101273.34;5095659;28;20040;-76
2021/03/07 05:22:29;;;;;;;29.38;18.38;;;;;;;-3.02;83.82;101259.50;5095660;28;20055;-76
2021/03/07 05:24:55;;;;;;;27.80;17.73;;;;;;;-3.10;83.77;101268.09;5077310;28;20352;-77
2021/03/07 05:27:22;;;;;;;26.52;17.17;;;;;;;-3.15;84.02;101263.66;5095513;28;20043;-78
2021/03/07 05:29:48;;;;;;;31.25;18.35;;;;;;;-3.12;84.02;101264.59;5095481;28;20044;-74
2021/03/07 05:32:15;;;;;;;29.95;17.20;;;;;;;-3.18;83.93;101261.03;5095651;28;20048;-78
2021/03/07 05:34:41;;;;;;;30.13;17.13;;;;;;;-3.37;83.32;101215.53;5077900;28;20048;-77
2021/03/07 05:37:07;;;;;;;34.17;18.33;;;;;;;-3.16;83.66;101261.91;5095580;28;20048;-74
2021/03/07 05:39:33;;;;;;;30.48;16.67;;;;;;;-3.12;84.08;101255.00;5095439;28;20048;-75
2021/03/07 05:42:01;;;;;;;29.02;18.60;;;;;;;-3.18;83.98;101255.81;5077587;28;20080;-76
2021/03/07 05:44:28;;;;;;;28.10;17.92;;;;;;;-3.23;84.49;101252.25;5095786;28;20056;-75
2021/03/07 05:46:54;;;;;;;33.10;18.00;;;;;;;-3.21;83.88;101253.13;5077673;28;20091;-77
2021/03/07 05:49:20;;;;;;;28.90;18.23;;;;;;;-3.28;84.02;101249.59;5077698;28;20160;-76
2021/03/07 05:51:47;;;;;;;29.90;18.17;;;;;;;-3.24;84.12;101254.84;5095416;28;20044;-73
2021/03/07 05:54:16;;;;;;;30.48;17.63;;;;;;;-3.32;84.49;101254.75;5077942;28;20452;-76
2021/03/07 05:56:47;;;;;;;27.27;18.92;;;;;;;-3.28;84.34;101248.69;5095472;28;20055;-76
2021/03/07 05:59:14;;;;;;;27.13;18.60;;;;;;;-3.32;84.25;101249.53;5077306;28;20085;-74
2021/03/07 06:01:40;;;;;;;28.20;18.10;;;;;;;-3.29;84.72;101250.44;5077417;28;20052;-74
2021/03/07 06:04:06;;;;;;;31.02;18.67;;;;;;;-3.32;84.45;101246.91;5077424;28;20052;-74
2021/03/07 06:06:33;;;;;;;38.35;18.58;;;;;;;-3.25;84.60;101251.38;5077377;28;20105;-78
2021/03/07 06:09:18;;;;;;;28.70;18.48;;;;;;;-3.24;84.25;101257.44;5077205;28;20135;-77
2021/03/07 06:11:46;;;;;;;26.65;17.10;;;;;;;-3.30;84.36;101245.19;5094899;28;20345;-73
2021/03/07 06:14:20;;;;;;;29.65;18.60;;;;;;;-3.28;84.11;101251.31;5094911;28;20442;-73
2021/03/07 06:17:03;;;;;;;28.83;18.67;;;;;;;-3.31;84.57;101256.50;5094967;28;20060;-73
2021/03/07 06:19:31;;;;;;;28.95;17.88;;;;;;;-3.28;84.64;101260.03;5095094;28;20459;-74
2021/03/07 06:22:13;;;;;;;27.02;18.13;;;;;;;-3.28;84.64;101251.31;5095006;28;20531;-76
2021/03/07 06:24:40;;;;;;;30.92;18.90;;;;;;;-3.29;84.65;101253.06;5094973;28;20052;-77
2021/03/07 06:27:12;;;;;;;34.83;18.70;;;;;;;-3.32;85.40;101255.59;5095095;28;20060;-75
2021/03/07 06:29:38;;;;;;;;;;;;;;;-3.33;84.99;101255.59;5095296;28;20051;-75
2021/03/07 06:32:16;;;;;;;31.35;18.25;;;;;;;-3.33;85.48;101256.47;5094991;28;20263;-74
2021/03/07 06:34:44;;;;;;;29.45;17.80;;;;;;;-3.36;84.62;101247.72;5077605;28;20127;-75
2021/03/07 06:37:10;;;;;;;28.63;18.92;;;;;;;-3.28;85.17;101243.47;5096089;28;20048;-74
2021/03/07 06:39:36;;;;;;;28.65;18.95;;;;;;;-3.12;85.27;101254.16;5080990;28;20040;-73
2021/03/07 06:42:07;;;;;;;34.35;19.38;;;;;;;-3.21;84.92;101253.13;5098745;28;20044;-77
2021/03/07 06:44:35;;;;;;;33.70;19.53;;;;;;;-3.29;84.79;101241.72;5098925;28;20335;-76
2021/03/07 06:47:12;;;;;;;33.53;18.83;;;;;;;-3.18;85.44;101253.19;5098622;28;20105;-75
2021/03/07 06:49:39;;;;;;;28.33;17.75;;;;;;;-3.20;83.96;101247.09;5098644;28;20052;-77
2021/03/07 06:52:19;;;;;;;28.83;17.95;;;;;;;-3.19;84.26;101241.00;5080793;28;20052;-73
2021/03/07 06:55:06;;;;;;;28.70;18.25;;;;;;;-3.12;85.05;101255.00;5098160;28;20392;-73
2021/03/07 06:57:32;;;;;;;31.23;18.27;;;;;;;-3.07;84.80;101252.44;5097140;28;20044;-74
2021/03/07 06:59:58;;;;;;;27.38;18.30;;;;;;;-2.97;84.59;101258.66;5098307;28;20372;-78
2021/03/07 07:02:25;;;;;;;27.75;18.30;;;;;;;-2.96;84.62;101258.69;5098127;28;20058;-75
2021/03/07 07:04:51;;;;;;;30.38;18.63;;;;;;;-2.85;84.36;101260.56;5098552;28;20047;-76
2021/03/07 07:07:19;;;;;;;32.13;18.75;;;;;;;-2.89;84.58;101252.69;5080484;28;20063;-74
2021/03/07 07:09:48;;;;;;;27.75;17.40;;;;;;;-2.81;84.95;101257.13;5098415;28;20059;-77
2021/03/07 07:12:18;;;;;;;27.92;17.88;;;;;;;-2.77;84.44;101257.16;5097262;28;20101;-77
2021/03/07 07:14:45;;;;;;;29.23;18.20;;;;;;;-2.70;84.99;101265.09;5087776;28;20059;-72
2021/03/07 07:17:16;;;;;;;29.35;17.55;;;;;;;-2.67;84.15;101268.63;5106025;28;20064;-73
2021/03/07 07:19:44;;;;;;;29.63;17.42;;;;;;;-2.64;84.03;101262.53;5087084;28;20437;-74
2021/03/07 07:22:12;;;;;;;33.88;19.38;;;;;;;-2.57;84.85;101258.28;5098586;28;20056;-78
2021/03/07 07:24:42;;;;;;;34.35;19.30;;;;;;;-2.50;84.16;101263.56;5098539;28;20048;-77
2021/03/07 07:27:09;;;;;;;28.93;18.47;;;;;;;-2.42;84.05;101266.28;5097774;28;20345;-77
2021/03/07 07:29:37;;;;;;;28.15;18.48;;;;;;;-2.35;84.13;101269.81;5097723;28;20059;-77
2021/03/07 07:32:15;;;;;;;30.83;18.85;;;;;;;-2.33;83.68;101268.97;5080139;28;20052;-76
2021/03/07 07:34:51;;;;;;;34.15;19.67;;;;;;;-2.34;83.40;101250.69;5098104;28;20056;-77
2021/03/07 07:37:26;;;;;;;30.73;18.60;;;;;;;-2.23;83.59;101254.25;5097450;28;20055;-75
2021/03/07 07:39:55;;;;;;;33.88;18.40;;;;;;;-2.17;83.32;101255.19;5097453;28;20392;-74
2021/03/07 07:42:36;;;;;;;30.05;17.85;;;;;;;-2.07;83.55;101263.13;5097692;28;20052;-77
2021/03/07 07:45:11;;;;;;;25.48;18.48;;;;;;;-2.00;83.18;101257.94;5097654;28;20056;-78
2021/03/07 07:47:45;;;;;;;26.52;18.05;;;;;;;-1.89;82.85;101258.94;5078775;28;20052;-78
2021/03/07 07:50:30;;;;;;;33.80;20.40;;;;;;;-1.82;83.69;101260.75;5097266;28;20071;-75
2021/03/07 07:52:58;;;;;;;29.35;18.02;;;;;;;-1.75;83.48;101259.03;5097111;28;20048;-76
2021/03/07 07:55:46;;;;;;;33.90;19.80;;;;;;;-1.67;82.81;101251.25;5097556;28;20109;-78
2021/03/07 07:58:34;;;;;;;34.05;18.77;;;;;;;-1.49;82.16;101247.00;5096917;28;20052;-74
2021/03/07 08:01:04;;;;;;;30.83;18.45;;;;;;;-1.40;82.21;101247.06;5080937;28;20056;-76
2021/03/07 08:03:30;;;;;;;31.25;20.30;;;;;;;-1.31;81.73;101246.25;5097424;28;20369;-77
2021/03/07 08:05:58;;;;;;;26.60;18.15;;;;;;;-1.24;81.63;101237.56;5095904;28;20124;-73
2021/03/07 08:08:35;;;;;;;30.23;18.50;;;;;;;-1.17;82.56;101241.94;5097067;28;20064;-75
2021/03/07 08:11:04;;;;;;;27.98;18.02;;;;;;;-1.16;81.41;101232.34;5100355;28;20052;-74
2021/03/07 08:13:33;;;;;;;29.63;19.10;;;;;;;-1.07;81.60;101232.41;5103189;28;20086;-74
2021/03/07 08:16:04;;;;;;;31.92;18.75;;;;;;;-1.00;81.27;101228.03;5104150;28;20052;-73
2021/03/07 08:19:00;;;;;;;31.48;19.90;;;;;;;-0.93;81.14;101224.56;5103359;28;20345;-81
2021/03/07 08:21:27;;;;;;;29.90;17.90;;;;;;;-0.84;81.36;101218.50;5095102;28;20047;-78
2021/03/07 08:24:01;;;;;;;32.85;17.98;;;;;;;-0.90;80.77;101216.75;5078911;28;20056;-75
2021/03/07 08:26:46;;;;;;;30.52;19.35;;;;;;;-0.71;80.73;101216.81;5096975;28;20429;-76
2021/03/07 08:29:38;;;;;;;26.92;18.48;;;;;;;-0.60;80.21;101217.69;5098989;28;20044;-75
2021/03/07 08:32:26;;;;;;;29.35;19.52;;;;;;;-0.54;80.30;101216.84;5098898;28;20055;-74
2021/03/07 08:34:53;;;;;;;28.33;19.58;;;;;;;-0.46;79.92;101217.72;5098797;28;20052;-76
2021/03/07 08:37:20;;;;;;;31.63;20.10;;;;;;;-0.45;79.45;101208.97;5096777;28;20055;-73
2021/03/07 08:39:46;;;;;;;31.02;19.65;;;;;;;-0.37;79.33;101214.25;5096491;28;20101;-74
2021/03/07 08:42:27;;;;;;;31.90;20.55;;;;;;;-0.24;78.93;101216.88;5096450;28;20052;-73
2021/03/07 08:45:16;;;;;;;30.00;20.52;;;;;;;-0.20;78.78;101203.78;5096876;28;20055;-75
2021/03/07 08:47:52;;;;;;;34.88;22.17;;;;;;;-0.09;79.17;101210.75;5096291;28;20075;-74
2021/03/07 08:50:22;;;;;;;28.45;19.92;;;;;;;-0.07;78.60;101203.75;5078180;28;20438;-75
2021/03/07 08:52:48;;;;;;;35.40;20.15;;;;;;;0.07;78.96;101206.38;5095932;28;20101;-73
2021/03/07 08:55:14;;;;;;;36.22;21.08;;;;;;;0.11;79.17;101209.00;5096067;28;20051;-72
2021/03/07 08:57:46;;;;;;;41.42;24.45;;;;;;;0.18;78.24;101206.38;5095701;28;20059;-72
2021/03/07 09:00:15;;;;;;;35.67;22.13;;;;;;;0.33;78.14;101208.97;5077278;28;20055;-72
2021/03/07 09:02:42;;;;;;;30.55;20.60;;;;;;;0.39;77.67;101210.72;5096211;28;20052;-72
2021/03/07 09:05:26;;;;;;;31.10;20.52;;;;;;;0.45;77.56;101196.69;5095757;28;20044;-72
2021/03/07 09:08:03;;;;;;;29.02;17.90;;;;;;;0.54;77.38;101192.31;5095626;28;20055;-73
2021/03/07 09:10:41;;;;;;;23.88;17.33;;;;;;;0.57;76.02;101185.28;5095568;28;20051;-77
2021/03/07 09:13:19;;;;;;;24.77;16.58;;;;;;;0.69;76.07;101185.25;5095560;28;20568;-74
2021/03/07 09:16:00;;;;;;;27.50;16.77;;;;;;;0.84;75.52;101188.69;5078343;28;20055;-74
2021/03/07 09:18:29;;;;;;;20.60;14.70;;;;;;;0.88;74.99;101182.56;5095837;28;20059;-73
2021/03/07 09:21:11;;;;;;;23.40;14.03;;;;;;;0.93;74.92;101183.41;5095895;28;20144;-77
2021/03/07 09:23:40;;;;;;;;;;;;;;;1.05;75.21;101185.09;5095672;28;20059;-77
2021/03/07 09:26:13;;;;;;;25.65;14.35;;;;;;;1.18;74.92;101191.16;5095460;28;20323;-76
2021/03/07 09:28:53;;;;;;;25.95;14.80;;;;;;;1.26;75.16;101185.88;5094333;28;20055;-74
2021/03/07 09:31:30;;;;;;;20.73;13.60;;;;;;;1.34;74.53;101181.44;5077520;28;20105;-73
2021/03/07 09:33:59;;;;;;;21.20;13.75;;;;;;;1.44;74.48;101179.63;5095815;28;20055;-74
2021/03/07 09:36:27;;;;;;;22.13;12.82;;;;;;;1.47;73.93;101180.47;5077998;28;20060;-73
2021/03/07 09:38:57;;;;;;;19.40;12.30;;;;;;;1.56;73.63;101181.28;5095844;28;20048;-77
2021/03/07 09:41:44;;;;;;;19.70;12.10;;;;;;;1.60;73.15;101176.00;5095817;28;20062;-74
2021/03/07 09:44:22;;;;;;;21.25;12.73;;;;;;;1.85;74.02;101172.31;5102185;28;20444;-71
2021/03/07 09:46:52;;;;;;;18.30;11.63;;;;;;;2.06;72.72;101162.47;5084509;28;20047;-72
2021/03/07 09:49:20;;;;;;;;;;;;;;;2.09;71.83;101172.97;5082910;28;20047;-72
2021/03/07 09:51:49;;;;;;;19.88;11.00;;;;;;;2.10;71.47;101174.72;5100826;28;20022;-73
2021/03/07 09:54:17;;;;;;;13.80;9.65;;;;;;;2.13;70.02;101169.44;5067706;28;20051;-74
2021/03/07 09:56:45;;;;;;;17.30;10.20;;;;;;;2.10;69.59;101159.78;5079936;28;20056;-74
2021/03/07 09:59:12;;;;;;;15.15;9.70;;;;;;;2.19;69.95;101161.47;5095764;28;20056;-74
2021/03/07 10:01:50;;;;;;;16.75;9.85;;;;;;;2.16;69.84;101158.84;5096545;28;20052;-77
2021/03/07 10:04:41;;;;;;;18.35;10.30;;;;;;;2.25;70.10;101169.31;5095202;28;20056;-76
2021/03/07 10:07:10;;;;;;;15.45;10.27;;;;;;;2.36;69.48;101170.94;5095444;28;20109;-74
2021/03/07 10:09:58;;;;;;;14.75;10.02;;;;;;;2.55;69.04;101167.22;5076963;28;20445;-72
2021/03/07 10:12:37;;;;;;;12.75;9.82;;;;;;;2.49;69.06;101143.56;5098021;28;20063;-73
2021/03/07 10:15:05;;;;;;;14.35;9.65;;;;;;;2.77;68.47;101163.47;5098838;28;20048;-78
2021/03/07 10:17:40;;;;;;;15.77;9.77;;;;;;;2.93;68.19;101161.47;5099210;28;20060;-76
2021/03/07 10:20:11;;;;;;;14.18;9.90;;;;;;;2.98;67.56;101159.66;5099021;28;20044;-75
2021/03/07 10:22:43;;;;;;;15.48;10.63;;;;;;;3.12;68.22;101157.72;5098770;28;20437;-75
2021/03/07 10:25:24;;;;;;;16.35;10.07;;;;;;;3.26;68.21;101151.38;5098611;28;20449;-77
2021/03/07 10:27:57;;;;;;;12.65;8.93;;;;;;;3.37;65.76;101157.38;5098865;28;20090;-76
2021/03/07 10:30:35;;;;;;;12.00;8.45;;;;;;;3.43;63.53;101156.41;5080756;28;20383;-74
2021/03/07 10:33:16;;;;;;;12.98;8.55;;;;;;;3.64;63.79;101163.13;5097913;28;20048;-76
2021/03/07 10:36:07;;;;;;;17.48;10.25;;;;;;;3.91;65.43;101155.63;5098352;28;20322;-77
2021/03/07 10:38:35;;;;;;;16.75;9.52;;;;;;;3.98;64.50;101159.03;5098503;28;20048;-76
2021/03/07 10:41:26;;;;;;;13.80;9.35;;;;;;;4.12;64.66;101150.88;5097447;28;20048;-76
2021/03/07 10:43:54;;;;;;;18.63;11.47;;;;;;;4.14;65.59;101154.34;5098660;28;20051;-78
2021/03/07 10:46:30;;;;;;;16.17;11.63;;;;;;;4.04;66.48;101147.50;5099052;28;20048;-76
2021/03/07 10:49:19;;;;;;;15.95;11.80;;;;;;;3.96;66.70;101149.41;5098263;28;20131;-76
2021/03/07 10:51:46;;;;;;;18.47;12.50;;;;;;;4.00;67.70;101153.72;5081132;28;20528;-74
2021/03/07 10:54:12;;;;;;;16.35;12.52;;;;;;;4.09;67.29;101156.22;5080533;28;20288;-74
2021/03/07 10:56:40;;;;;;;17.33;12.10;;;;;;;4.32;66.89;101150.50;5080405;28;20051;-73
2021/03/07 10:59:08;;;;;;;17.25;11.75;;;;;;;4.38;65.78;101152.16;5097948;28;20504;-72
2021/03/07 11:01:34;;;;;;;19.33;11.80;;;;;;;4.52;65.10;101148.38;5080412;28;20051;-77
2021/03/07 11:04:00;;;;;;;16.05;10.27;;;;;;;4.23;64.17;101147.19;5098233;28;20136;-76
2021/03/07 11:06:27;;;;;;;13.93;9.95;;;;;;;4.48;63.50;101145.78;5098263;28;20429;-74
2021/03/07 11:08:53;;;;;;;16.55;11.27;;;;;;;4.72;63.50;101129.44;5097949;28;20052;-76
2021/03/07 11:11:19;;;;;;;13.95;10.23;;;;;;;5.01;63.54;101142.06;5063858;28;20097;-75
2021/03/07 11:13:46;;;;;;;15.80;10.07;;;;;;;5.19;61.88;101149.63;5098466;28;20082;-73
2021/03/07 11:16:12;;;;;;;14.57;11.05;;;;;;;5.15;61.59;101130.28;5098054;28;20048;-77
2021/03/07 11:18:39;;;;;;;13.43;10.43;;;;;;;5.29;61.75;101140.56;5097883;28;20105;-75
2021/03/07 11:21:06;;;;;;;18.42;11.23;;;;;;;5.44;61.71;101134.91;5096713;28;20047;-73
2021/03/07 11:23:34;;;;;;;17.90;10.82;;;;;;;5.41;61.40;101150.00;5079549;28;20044;-75
2021/03/07 11:26:03;;;;;;;17.08;11.20;;;;;;;5.52;61.86;101137.38;5098222;28;20052;-76